createdAt,value
2016-02-27T00:00:52.156Z,22.4
2016-02-27T00:01:53.157Z,22.4
2016-02-27T00:02:50.926Z,22.4
2016-02-27T00:03:48.805Z,22.4
2016-02-27T00:04:46.447Z,22.4
2016-02-27T00:05:44.621Z,22.4
2016-02-27T00:06:41.984Z,22.4
2016-02-27T00:07:39.752Z,22.4
2016-02-27T00:08:37.630Z,22.4
2016-02-27T00:09:35.445Z,22.5
2016-02-27T00:10:33.260Z,22.4
2016-02-27T00:11:34.106Z,22.4
2016-02-27T00:12:31.872Z,22.4
2016-02-27T00:13:29.750Z,22.5
2016-02-27T00:14:27.815Z,22.5
2016-02-27T00:15:25.662Z,22.5
2016-02-27T00:16:23.695Z,22.5
2016-02-27T00:17:21.698Z,22.5
2016-02-27T00:18:20.123Z,22.5
2016-02-27T00:19:17.860Z,22.5
2016-02-27T00:20:15.565Z,22.5
2016-02-27T00:21:16.568Z,22.4
2016-02-27T00:22:14.696Z,22.5
2016-02-27T00:23:12.714Z,22.5
2016-02-27T00:24:10.373Z,22.5
2016-02-27T00:25:08.500Z,22.5
2016-02-27T00:26:06.410Z,22.5
2016-02-27T00:27:04.413Z,22.5
2016-02-27T00:28:02.571Z,22.5
2016-02-27T00:29:00.574Z,22.5
2016-02-27T00:29:58.530Z,22.5
2016-02-27T00:30:59.532Z,22.5
2016-02-27T00:31:57.552Z,22.5
2016-02-27T00:32:55.569Z,22.5
2016-02-27T00:33:53.588Z,22.5
2016-02-27T00:34:51.591Z,22.5
2016-02-27T00:35:49.484Z,22.5
2016-02-27T00:36:47.252Z,22.5
2016-02-27T00:37:44.896Z,22.5
2016-02-27T00:38:42.663Z,22.5
2016-02-27T00:39:40.479Z,22.5
2016-02-27T00:40:41.482Z,22.5
2016-02-27T00:41:39.359Z,22.5
2016-02-27T00:42:37.002Z,22.5
2016-02-27T00:43:34.771Z,22.6
2016-02-27T00:44:32.537Z,22.6
2016-02-27T00:45:30.304Z,22.6
2016-02-27T00:46:28.058Z,22.5
2016-02-27T00:47:25.826Z,22.5
2016-02-27T00:48:23.594Z,22.5
2016-02-27T00:49:21.457Z,22.5
2016-02-27T00:50:22.428Z,22.6
2016-02-27T00:51:20.180Z,22.5
2016-02-27T00:52:17.933Z,22.5
2016-02-27T00:53:15.701Z,22.6
2016-02-27T00:54:13.470Z,22.5
2016-02-27T00:55:11.238Z,22.6
2016-02-27T00:56:09.006Z,22.5
2016-02-27T00:57:06.900Z,22.6
2016-02-27T00:58:04.652Z,22.6
2016-02-27T00:59:02.467Z,22.5
2016-02-27T01:00:03.470Z,22.5
2016-02-27T01:01:01.129Z,22.5
2016-02-27T01:01:58.882Z,22.5
2016-02-27T01:02:56.760Z,22.5
2016-02-27T01:03:54.763Z,22.5
2016-02-27T01:04:52.186Z,22.5
2016-02-27T01:05:49.939Z,22.5
2016-02-27T01:06:47.708Z,22.6
2016-02-27T01:07:45.586Z,22.5
2016-02-27T01:08:43.401Z,22.5
2016-02-27T01:09:44.404Z,22.5
2016-02-27T01:10:42.047Z,22.6
2016-02-27T01:11:39.830Z,22.6
2016-02-27T01:12:37.708Z,22.6
2016-02-27T01:13:35.349Z,22.6
2016-02-27T01:14:33.226Z,22.6
2016-02-27T01:15:30.870Z,22.6
2016-02-27T01:16:28.763Z,22.6
2016-02-27T01:17:26.407Z,22.6
2016-02-27T01:18:24.221Z,22.6
2016-02-27T01:19:25.223Z,22.6
2016-02-27T01:20:23.243Z,22.7
2016-02-27T01:21:21.012Z,22.6
2016-02-27T01:22:18.764Z,22.6
2016-02-27T01:23:16.532Z,22.6
2016-02-27T01:24:14.410Z,22.6
2016-02-27T01:25:12.053Z,22.7
2016-02-27T01:26:09.822Z,22.6
2016-02-27T01:27:07.589Z,22.7
2016-02-27T01:28:05.405Z,22.7
2016-02-27T01:29:06.407Z,22.7
2016-02-27T01:30:04.175Z,22.6
2016-02-27T01:31:01.945Z,22.6
2016-02-27T01:31:59.822Z,22.7
2016-02-27T01:32:57.590Z,22.6
2016-02-27T01:33:55.234Z,22.7
2016-02-27T01:34:53.002Z,22.7
2016-02-27T01:35:50.895Z,22.7
2016-02-27T01:36:48.522Z,22.7
2016-02-27T01:37:46.354Z,22.7
2016-02-27T01:38:47.591Z,22.7
2016-02-27T01:39:45.124Z,22.7
2016-02-27T01:40:43.002Z,22.7
2016-02-27T01:41:40.661Z,22.6
2016-02-27T01:42:38.460Z,22.7
2016-02-27T01:43:36.179Z,22.7
2016-02-27T01:44:33.948Z,22.7
2016-02-27T01:45:31.826Z,22.7
2016-02-27T01:46:29.469Z,22.7
2016-02-27T01:47:27.299Z,22.7
2016-02-27T01:48:28.474Z,22.7
2016-02-27T01:49:26.180Z,22.7
2016-02-27T01:50:23.948Z,22.7
2016-02-27T01:51:21.592Z,22.7
2016-02-27T01:52:19.359Z,22.7
2016-02-27T01:53:17.378Z,22.7
2016-02-27T01:54:15.397Z,22.7
2016-02-27T01:55:13.399Z,22.7
2016-02-27T01:56:11.184Z,22.7
2016-02-27T01:57:08.998Z,22.7
2016-02-27T01:58:10.001Z,22.7
2016-02-27T01:59:07.754Z,22.7
2016-02-27T02:00:05.522Z,22.7
2016-02-27T02:01:03.291Z,22.6
2016-02-27T02:02:01.058Z,22.7
2016-02-27T02:02:58.811Z,22.7
2016-02-27T02:03:56.564Z,22.7
2016-02-27T02:04:54.473Z,22.7
2016-02-27T02:05:52.101Z,22.7
2016-02-27T02:06:49.916Z,22.7
2016-02-27T02:07:50.950Z,22.7
2016-02-27T02:08:49.062Z,22.6
2016-02-27T02:09:46.971Z,22.6
2016-02-27T02:10:44.974Z,22.7
2016-02-27T02:11:43.007Z,22.7
2016-02-27T02:12:41.010Z,22.6
2016-02-27T02:13:39.153Z,22.6
2016-02-27T02:14:37.043Z,22.6
2016-02-27T02:15:35.079Z,22.6
2016-02-27T02:16:33.144Z,22.6
2016-02-27T02:17:34.146Z,22.5
2016-02-27T02:18:32.290Z,22.5
2016-02-27T02:19:30.182Z,22.5
2016-02-27T02:20:28.201Z,22.5
2016-02-27T02:21:26.203Z,22.5
2016-02-27T02:22:24.222Z,22.5
2016-02-27T02:23:22.257Z,22.5
2016-02-27T02:24:20.259Z,22.5
2016-02-27T02:25:18.277Z,22.5
2016-02-27T02:26:16.467Z,22.5
2016-02-27T02:27:17.470Z,22.5
2016-02-27T02:28:15.379Z,22.5
2016-02-27T02:29:13.412Z,22.5
2016-02-27T02:30:11.556Z,22.5
2016-02-27T02:31:09.559Z,22.5
2016-02-27T02:32:07.561Z,22.4
2016-02-27T02:33:05.486Z,22.4
2016-02-27T02:34:03.598Z,22.4
2016-02-27T02:35:01.617Z,22.4
2016-02-27T02:35:59.697Z,22.4
2016-02-27T02:37:00.700Z,22.4
2016-02-27T02:37:58.702Z,22.4
2016-02-27T02:38:56.721Z,22.4
2016-02-27T02:39:54.629Z,22.4
2016-02-27T02:40:52.773Z,22.4
2016-02-27T02:41:50.667Z,22.3
2016-02-27T02:42:48.700Z,22.3
2016-02-27T02:43:46.719Z,22.4
2016-02-27T02:44:44.830Z,22.3
2016-02-27T02:45:42.787Z,22.3
2016-02-27T02:46:43.914Z,22.3
2016-02-27T02:47:41.807Z,22.3
2016-02-27T02:48:39.823Z,22.3
2016-02-27T02:49:38.107Z,22.3
2016-02-27T02:50:36.501Z,22.3
2016-02-27T02:51:34.644Z,22.3
2016-02-27T02:52:32.928Z,22.3
2016-02-27T02:53:31.181Z,22.3
2016-02-27T02:54:29.449Z,22.3
2016-02-27T02:55:27.904Z,22.3
2016-02-27T02:56:28.907Z,22.3
2016-02-27T02:57:27.066Z,22.3
2016-02-27T02:58:25.334Z,22.3
2016-02-27T02:59:23.603Z,22.3
2016-02-27T03:00:21.995Z,22.3
2016-02-27T03:01:20.265Z,22.3
2016-02-27T03:02:18.423Z,22.3
2016-02-27T03:03:16.692Z,22.3
2016-02-27T03:04:14.975Z,22.3
2016-02-27T03:05:13.416Z,22.3
2016-02-27T03:06:14.419Z,22.3
2016-02-27T03:07:12.686Z,22.3
2016-02-27T03:08:10.955Z,22.3
2016-02-27T03:09:09.114Z,22.3
2016-02-27T03:10:07.492Z,22.3
2016-02-27T03:11:05.650Z,22.3
2016-02-27T03:12:03.935Z,22.3
2016-02-27T03:13:02.203Z,22.3
2016-02-27T03:14:00.471Z,22.3
2016-02-27T03:14:58.802Z,22.2
2016-02-27T03:15:59.804Z,22.3
2016-02-27T03:16:58.074Z,22.3
2016-02-27T03:17:56.357Z,22.3
2016-02-27T03:18:54.626Z,22.3
2016-02-27T03:19:53.034Z,22.3
2016-02-27T03:20:51.177Z,22.2
2016-02-27T03:21:49.696Z,22.3
2016-02-27T03:22:47.964Z,22.2
2016-02-27T03:23:46.623Z,22.2
2016-02-27T03:24:45.079Z,22.2
2016-02-27T03:25:46.082Z,22.2
2016-02-27T03:26:44.615Z,22.2
2016-02-27T03:27:43.275Z,22.3
2016-02-27T03:28:41.650Z,22.2
2016-02-27T03:29:40.168Z,22.3
2016-02-27T03:30:38.701Z,22.2
2016-02-27T03:31:37.236Z,22.2
2016-02-27T03:32:35.879Z,22.2
2016-02-27T03:33:34.272Z,22.2
2016-02-27T03:34:32.869Z,22.2
2016-02-27T03:35:33.980Z,22.2
2016-02-27T03:36:32.375Z,22.2
2016-02-27T03:37:30.908Z,22.2
2016-02-27T03:38:29.427Z,22.3
2016-02-27T03:39:28.070Z,22.2
2016-02-27T03:40:26.603Z,22.2
2016-02-27T03:41:25.122Z,22.3
2016-02-27T03:42:23.655Z,22.2
2016-02-27T03:43:22.049Z,22.2
2016-02-27T03:44:20.630Z,22.2
2016-02-27T03:45:21.633Z,22.2
2016-02-27T03:46:20.152Z,22.2
2016-02-27T03:47:18.419Z,22.2
2016-02-27T03:48:16.829Z,22.2
2016-02-27T03:49:15.222Z,22.2
2016-02-27T03:50:13.771Z,22.2
2016-02-27T03:51:12.273Z,22.2
2016-02-27T03:52:10.808Z,22.2
2016-02-27T03:53:09.326Z,22.2
2016-02-27T03:54:07.907Z,22.2
2016-02-27T03:55:08.910Z,22.2
2016-02-27T03:56:07.428Z,22.2
2016-02-27T03:57:05.978Z,22.2
2016-02-27T03:58:04.480Z,22.2
2016-02-27T03:59:03.014Z,22.2
2016-02-27T04:00:01.532Z,22.2
2016-02-27T04:01:00.051Z,22.2
2016-02-27T04:01:58.585Z,22.2
2016-02-27T04:02:57.103Z,22.2
2016-02-27T04:03:55.700Z,22.2
2016-02-27T04:04:56.811Z,22.2
2016-02-27T04:05:55.220Z,22.2
2016-02-27T04:06:53.738Z,22.2
2016-02-27T04:07:52.398Z,22.2
2016-02-27T04:08:50.792Z,22.2
2016-02-27T04:09:49.466Z,22.2
2016-02-27T04:10:47.844Z,22.2
2016-02-27T04:11:46.378Z,22.2
2016-02-27T04:12:44.896Z,22.2
2016-02-27T04:13:43.474Z,22.2
2016-02-27T04:14:44.492Z,22.2
2016-02-27T04:15:42.994Z,22.2
2016-02-27T04:16:41.529Z,22.2
2016-02-27T04:17:40.062Z,22.2
2016-02-27T04:18:38.580Z,22.2
2016-02-27T04:19:37.100Z,22.2
2016-02-27T04:20:35.633Z,22.2
2016-02-27T04:21:34.152Z,22.2
2016-02-27T04:22:32.701Z,22.2
2016-02-27T04:23:31.266Z,22.2
2016-02-27T04:24:32.268Z,22.2
2016-02-27T04:25:30.913Z,22.2
2016-02-27T04:26:29.306Z,22.2
2016-02-27T04:27:27.855Z,22.2
2016-02-27T04:28:26.483Z,22.2
2016-02-27T04:29:24.892Z,22.2
2016-02-27T04:30:23.398Z,22.2
2016-02-27T04:31:22.045Z,22.2
2016-02-27T04:32:20.549Z,22.2
2016-02-27T04:33:19.008Z,22.2
2016-02-27T04:34:19.981Z,22.2
2016-02-27T04:35:18.526Z,22.2
2016-02-27T04:36:17.148Z,22.2
2016-02-27T04:37:15.552Z,22.2
2016-02-27T04:38:14.191Z,22.2
2016-02-27T04:39:12.610Z,22.2
2016-02-27T04:40:11.127Z,22.2
2016-02-27T04:41:09.753Z,22.2
2016-02-27T04:42:08.160Z,22.2
2016-02-27T04:43:06.740Z,22.2
2016-02-27T04:44:07.741Z,22.2
2016-02-27T04:45:06.259Z,22.2
2016-02-27T04:46:04.900Z,22.2
2016-02-27T04:47:03.433Z,22.2
2016-02-27T04:48:01.826Z,22.2
2016-02-27T04:49:00.359Z,22.1
2016-02-27T04:49:58.908Z,22.1
2016-02-27T04:50:57.411Z,22.1
2016-02-27T04:51:55.929Z,22.2
2016-02-27T04:52:54.510Z,22.1
2016-02-27T04:53:55.653Z,22.1
2016-02-27T04:54:54.045Z,22.1
2016-02-27T04:55:52.595Z,22.1
2016-02-27T04:56:51.098Z,22.1
2016-02-27T04:57:49.756Z,22.1
2016-02-27T04:58:48.150Z,22.1
2016-02-27T04:59:46.681Z,22.1
2016-02-27T05:00:45.199Z,22.1
2016-02-27T05:01:43.717Z,22.1
2016-02-27T05:02:42.331Z,22.2
2016-02-27T05:03:43.427Z,22.1
2016-02-27T05:04:41.961Z,22.1
2016-02-27T05:05:40.541Z,22.1
2016-02-27T05:06:38.888Z,22.1
2016-02-27T05:07:37.405Z,22.2
2016-02-27T05:08:35.940Z,22.1
2016-02-27T05:09:34.458Z,22.2
2016-02-27T05:10:32.992Z,22.1
2016-02-27T05:11:31.511Z,22.1
2016-02-27T05:12:30.216Z,22.1
2016-02-27T05:13:31.094Z,22.1
2016-02-27T05:14:29.612Z,22.2
2016-02-27T05:15:28.146Z,22.1
2016-02-27T05:16:26.665Z,22.1
2016-02-27T05:17:25.323Z,22.2
2016-02-27T05:18:23.843Z,22.1
2016-02-27T05:19:22.266Z,22.1
2016-02-27T05:20:20.769Z,22.1
2016-02-27T05:21:19.303Z,22.1
2016-02-27T05:22:17.899Z,22.1
2016-02-27T05:23:19.011Z,22.2
2016-02-27T05:24:17.404Z,22.2
2016-02-27T05:25:16.064Z,22.1
2016-02-27T05:26:14.457Z,22.1
2016-02-27T05:27:12.992Z,22.1
2016-02-27T05:28:11.509Z,22.1
2016-02-27T05:29:10.043Z,22.1
2016-02-27T05:30:08.562Z,22.1
2016-02-27T05:31:07.205Z,22.1
2016-02-27T05:32:05.661Z,22.1
2016-02-27T05:33:06.678Z,22.1
2016-02-27T05:34:05.198Z,22.1
2016-02-27T05:35:03.716Z,22.1
2016-02-27T05:36:02.250Z,22.1
2016-02-27T05:37:00.893Z,22.1
2016-02-27T05:37:59.317Z,22.1
2016-02-27T05:38:57.819Z,22.1
2016-02-27T05:39:56.354Z,22.1
2016-02-27T05:40:54.888Z,22.1
2016-02-27T05:41:53.578Z,22.1
2016-02-27T05:42:54.456Z,22.1
2016-02-27T05:43:53.130Z,22.1
2016-02-27T05:44:51.540Z,22.1
2016-02-27T05:45:50.026Z,22.1
2016-02-27T05:46:48.557Z,22.2
2016-02-27T05:47:47.201Z,22.1
2016-02-27T05:48:45.610Z,22.1
2016-02-27T05:49:44.128Z,22.1
2016-02-27T05:50:42.663Z,22.1
2016-02-27T05:51:41.352Z,22.1
2016-02-27T05:52:42.246Z,22.1
2016-02-27T05:53:40.764Z,22.1
2016-02-27T05:54:39.407Z,22.1
2016-02-27T05:55:37.817Z,22.1
2016-02-27T05:56:36.350Z,22.1
2016-02-27T05:57:34.884Z,22.1
2016-02-27T05:58:33.418Z,22.1
2016-02-27T05:59:32.031Z,22.1
2016-02-27T06:00:30.689Z,22.1
2016-02-27T06:01:29.270Z,22.1
2016-02-27T06:02:30.414Z,22.1
2016-02-27T06:03:29.088Z,22.1
2016-02-27T06:04:27.700Z,22.2
2016-02-27T06:05:26.109Z,22.2
2016-02-27T06:06:24.627Z,22.2
2016-02-27T06:07:23.145Z,22.1
2016-02-27T06:08:21.944Z,22.1
2016-02-27T06:09:20.448Z,22.1
2016-02-27T06:10:19.247Z,22.1
2016-02-27T06:11:17.828Z,22.1
2016-02-27T06:12:18.830Z,22.1
2016-02-27T06:13:17.490Z,22.2
2016-02-27T06:14:16.024Z,22.2
2016-02-27T06:15:14.526Z,22.2
2016-02-27T06:16:12.935Z,22.2
2016-02-27T06:17:11.454Z,22.2
2016-02-27T06:18:09.988Z,22.2
2016-02-27T06:19:08.506Z,22.2
2016-02-27T06:20:07.040Z,22.1
2016-02-27T06:21:05.605Z,22.2
2016-02-27T06:22:06.592Z,22.2
2016-02-27T06:23:05.517Z,22.2
2016-02-27T06:24:04.284Z,22.2
2016-02-27T06:25:02.944Z,22.2
2016-02-27T06:26:01.587Z,22.2
2016-02-27T06:27:00.371Z,22.2
2016-02-27T06:27:58.781Z,22.2
2016-02-27T06:28:57.548Z,22.2
2016-02-27T06:29:56.332Z,22.2
2016-02-27T06:30:55.288Z,22.2
2016-02-27T06:31:56.181Z,22.2
2016-02-27T06:32:54.965Z,22.2
2016-02-27T06:33:53.718Z,22.2
2016-02-27T06:34:52.533Z,22.3
2016-02-27T06:35:51.283Z,22.2
2016-02-27T06:36:50.067Z,22.2
2016-02-27T06:37:48.851Z,22.3
2016-02-27T06:38:47.744Z,22.2
2016-02-27T06:39:46.528Z,22.2
2016-02-27T06:40:45.374Z,22.3
2016-02-27T06:41:46.237Z,22.3
2016-02-27T06:42:45.146Z,22.3
2016-02-27T06:43:43.804Z,22.2
2016-02-27T06:44:42.573Z,22.3
2016-02-27T06:45:41.372Z,22.3
2016-02-27T06:46:39.891Z,22.3
2016-02-27T06:47:38.409Z,22.2
2016-02-27T06:48:37.193Z,22.2
2016-02-27T06:49:35.993Z,22.2
2016-02-27T06:50:34.808Z,22.3
2016-02-27T06:51:35.827Z,22.3
2016-02-27T06:52:34.454Z,22.3
2016-02-27T06:53:33.238Z,22.2
2016-02-27T06:54:31.897Z,22.2
2016-02-27T06:55:30.681Z,22.2
2016-02-27T06:56:29.448Z,22.2
2016-02-27T06:57:28.233Z,22.3
2016-02-27T06:58:27.017Z,22.3
2016-02-27T06:59:25.800Z,22.2
2016-02-27T07:00:24.648Z,22.3
2016-02-27T07:01:25.634Z,22.3
2016-02-27T07:02:24.418Z,22.3
2016-02-27T07:03:23.203Z,22.3
2016-02-27T07:04:21.970Z,22.3
2016-02-27T07:05:20.755Z,22.3
2016-02-27T07:06:19.663Z,22.2
2016-02-27T07:07:18.306Z,22.3
2016-02-27T07:08:17.092Z,22.3
2016-02-27T07:09:15.875Z,22.3
2016-02-27T07:10:14.862Z,22.3
2016-02-27T07:11:15.724Z,22.3
2016-02-27T07:12:14.617Z,22.3
2016-02-27T07:13:13.276Z,22.3
2016-02-27T07:14:12.060Z,22.3
2016-02-27T07:15:10.828Z,22.3
2016-02-27T07:16:09.613Z,22.3
2016-02-27T07:17:08.381Z,22.3
2016-02-27T07:18:07.196Z,22.3
2016-02-27T07:19:05.949Z,22.3
2016-02-27T07:20:04.779Z,22.3
2016-02-27T07:21:05.782Z,22.3
2016-02-27T07:22:04.565Z,22.3
2016-02-27T07:23:03.099Z,22.3
2016-02-27T07:24:01.619Z,22.3
2016-02-27T07:25:00.137Z,22.3
2016-02-27T07:25:58.937Z,22.3
2016-02-27T07:26:57.439Z,22.3
2016-02-27T07:27:56.332Z,22.3
2016-02-27T07:28:55.006Z,22.3
2016-02-27T07:29:53.834Z,22.3
2016-02-27T07:30:54.825Z,22.4
2016-02-27T07:31:53.746Z,22.4
2016-02-27T07:32:52.140Z,22.4
2016-02-27T07:33:50.940Z,22.4
2016-02-27T07:34:49.708Z,22.4
2016-02-27T07:35:48.476Z,22.3
2016-02-27T07:36:47.009Z,22.4
2016-02-27T07:37:45.528Z,22.4
2016-02-27T07:38:44.077Z,22.4
2016-02-27T07:39:42.642Z,22.4
2016-02-27T07:40:43.631Z,22.4
2016-02-27T07:41:42.148Z,22.5
2016-02-27T07:42:41.073Z,22.5
2016-02-27T07:43:39.716Z,22.4
2016-02-27T07:44:38.360Z,22.4
2016-02-27T07:45:36.768Z,22.5
2016-02-27T07:46:35.318Z,22.5
2016-02-27T07:47:33.821Z,22.5
2016-02-27T07:48:32.464Z,22.5
2016-02-27T07:49:30.936Z,22.5
2016-02-27T07:50:32.063Z,22.5
2016-02-27T07:51:30.457Z,22.5
2016-02-27T07:52:28.975Z,22.5
2016-02-27T07:53:27.618Z,22.5
2016-02-27T07:54:26.058Z,22.5
2016-02-27T07:55:24.545Z,22.5
2016-02-27T07:56:23.079Z,22.5
2016-02-27T07:57:21.723Z,22.6
2016-02-27T07:58:20.131Z,22.5
2016-02-27T07:59:18.712Z,22.6
2016-02-27T08:00:19.715Z,22.6
2016-02-27T08:01:18.234Z,22.6
2016-02-27T08:02:16.751Z,22.6
2016-02-27T08:03:15.286Z,22.6
2016-02-27T08:04:13.820Z,22.6
2016-02-27T08:05:12.463Z,22.6
2016-02-27T08:06:10.856Z,22.7
2016-02-27T08:07:09.375Z,22.7
2016-02-27T08:08:07.909Z,22.7
2016-02-27T08:09:06.489Z,22.7
2016-02-27T08:10:07.492Z,22.7
2016-02-27T08:11:06.135Z,22.7
2016-02-27T08:12:04.528Z,22.7
2016-02-27T08:13:03.063Z,22.7
2016-02-27T08:14:01.580Z,22.8
2016-02-27T08:15:00.099Z,22.7
2016-02-27T08:15:58.633Z,22.8
2016-02-27T08:16:57.152Z,22.8
2016-02-27T08:17:55.683Z,22.8
2016-02-27T08:18:54.404Z,22.8
2016-02-27T08:19:55.375Z,22.8
2016-02-27T08:20:53.785Z,22.8
2016-02-27T08:21:52.460Z,22.8
2016-02-27T08:22:50.838Z,22.9
2016-02-27T08:23:49.386Z,22.9
2016-02-27T08:24:47.888Z,22.9
2016-02-27T08:25:46.408Z,22.9
2016-02-27T08:26:44.926Z,22.9
2016-02-27T08:27:43.460Z,22.9
2016-02-27T08:28:42.040Z,22.9
2016-02-27T08:29:43.043Z,22.9
2016-02-27T08:30:41.311Z,22.9
2016-02-27T08:31:39.580Z,22.9
2016-02-27T08:32:37.848Z,23
2016-02-27T08:33:36.117Z,23.1
2016-02-27T08:34:34.384Z,23.1
2016-02-27T08:35:32.434Z,23.2
2016-02-27T08:36:30.421Z,23.3
2016-02-27T08:37:28.440Z,23.4
2016-02-27T08:38:26.631Z,23.5
2016-02-27T08:39:27.523Z,23.6
2016-02-27T08:40:29.182Z,23.7
2016-02-27T08:41:30.639Z,23.9
2016-02-27T08:42:32.078Z,24
2016-02-27T08:43:33.128Z,24.1
2016-02-27T08:44:33.803Z,24.2
2016-02-27T08:45:34.352Z,24.3
2016-02-27T08:46:35.027Z,24.4
2016-02-27T08:47:35.341Z,24.5
2016-02-27T08:48:35.453Z,24.5
2016-02-27T08:49:36.346Z,24.5
2016-02-27T08:50:36.491Z,24.5
2016-02-27T08:51:36.290Z,24.6
2016-02-27T08:52:36.074Z,24.5
2016-02-27T08:53:35.592Z,24.6
2016-02-27T08:54:35.032Z,24.5
2016-02-27T08:55:34.566Z,24.5
2016-02-27T08:56:34.085Z,24.5
2016-02-27T08:57:33.618Z,24.5
2016-02-27T08:58:33.340Z,24.5
2016-02-27T08:59:34.217Z,24.5
2016-02-27T09:00:34.001Z,24.5
2016-02-27T09:01:33.785Z,24.5
2016-02-27T09:02:33.710Z,24.5
2016-02-27T09:03:33.369Z,24.5
2016-02-27T09:04:33.293Z,24.5
2016-02-27T09:05:32.953Z,24.6
2016-02-27T09:06:32.736Z,24.7
2016-02-27T09:07:32.520Z,24.7
2016-02-27T09:08:32.242Z,24.8
2016-02-27T09:09:33.103Z,24.8
2016-02-27T09:10:32.653Z,24.9
2016-02-27T09:11:32.328Z,24.9
2016-02-27T09:12:31.706Z,24.9
2016-02-27T09:13:31.006Z,25
2016-02-27T09:14:30.273Z,25.1
2016-02-27T09:15:29.292Z,25.1
2016-02-27T09:16:28.326Z,25.1
2016-02-27T09:17:27.344Z,25.2
2016-02-27T09:18:26.456Z,25.2
2016-02-27T09:19:27.427Z,25.1
2016-02-27T09:20:26.211Z,25.1
2016-02-27T09:21:25.339Z,25
2016-02-27T09:22:24.263Z,24.9
2016-02-27T09:23:23.297Z,24.9
2016-02-27T09:24:22.441Z,24.9
2016-02-27T09:25:21.615Z,24.7
2016-02-27T09:26:21.135Z,24.7
2016-02-27T09:27:20.793Z,24.6
2016-02-27T09:28:20.389Z,24.5
2016-02-27T09:29:21.393Z,24.4
2016-02-27T09:30:21.441Z,24.3
2016-02-27T09:31:21.382Z,24.3
2016-02-27T09:32:21.384Z,24.2
2016-02-27T09:33:21.699Z,24.1
2016-02-27T09:34:22.233Z,24
2016-02-27T09:35:22.783Z,24
2016-02-27T09:36:23.317Z,23.9
2016-02-27T09:37:24.117Z,23.8
2016-02-27T09:38:25.229Z,23.7
2016-02-27T09:39:26.340Z,23.7
2016-02-27T09:40:27.281Z,23.7
2016-02-27T09:41:28.331Z,23.6
2016-02-27T09:42:29.395Z,23.5
2016-02-27T09:43:30.711Z,23.5
2016-02-27T09:44:32.026Z,23.5
2016-02-27T09:45:33.326Z,23.5
2016-02-27T09:46:34.875Z,23.5
2016-02-27T09:47:36.472Z,23.4
2016-02-27T09:48:38.068Z,23.4
2016-02-27T09:49:39.071Z,23.4
2016-02-27T09:50:40.620Z,23.3
2016-02-27T09:51:42.294Z,23.3
2016-02-27T09:52:43.750Z,23.3
2016-02-27T09:53:41.518Z,23.3
2016-02-27T09:54:39.288Z,23.2
2016-02-27T09:55:37.322Z,23.2
2016-02-27T09:56:35.324Z,23.2
2016-02-27T09:57:33.343Z,23.2
2016-02-27T09:58:31.517Z,23.3
2016-02-27T09:59:32.410Z,23.2
2016-02-27T10:00:30.538Z,23.3
2016-02-27T10:01:28.571Z,23.2
2016-02-27T10:02:26.574Z,23.2
2016-02-27T10:03:24.484Z,23.2
2016-02-27T10:04:22.486Z,23.1
2016-02-27T10:05:20.505Z,23.1
2016-02-27T10:06:18.538Z,23.1
2016-02-27T10:07:16.665Z,23.2
2016-02-27T10:08:14.748Z,23.1
2016-02-27T10:09:15.640Z,23.1
2016-02-27T10:10:13.753Z,23.1
2016-02-27T10:11:11.770Z,23.1
2016-02-27T10:12:09.929Z,23.1
2016-02-27T10:13:07.964Z,23.1
2016-02-27T10:14:06.200Z,23
2016-02-27T10:16:02.769Z,23.1
2016-02-27T10:17:01.019Z,23.1
2016-02-27T10:17:59.350Z,23.1
2016-02-27T10:19:00.336Z,23.1
2016-02-27T10:19:58.745Z,23.1
2016-02-27T10:20:56.998Z,23.1
2016-02-27T10:21:55.172Z,23
2016-02-27T10:22:53.425Z,23.1
2016-02-27T10:23:51.818Z,23.1
2016-02-27T10:24:49.977Z,23
2016-02-27T10:25:48.230Z,23
2016-02-27T10:26:46.499Z,23
2016-02-27T10:27:45.110Z,23.1
2016-02-27T10:28:46.097Z,23
2016-02-27T10:29:44.600Z,23
2016-02-27T10:30:43.259Z,23
2016-02-27T10:31:41.652Z,23
2016-02-27T10:32:40.171Z,23
2016-02-27T10:33:38.814Z,23
2016-02-27T10:34:37.223Z,23
2016-02-27T10:35:35.866Z,22.9
2016-02-27T10:36:34.275Z,22.9
2016-02-27T10:37:32.996Z,23
2016-02-27T10:38:33.859Z,22.9
2016-02-27T10:39:32.376Z,22.9
2016-02-27T10:40:30.911Z,23
2016-02-27T10:41:29.414Z,23
2016-02-27T10:42:28.073Z,23
2016-02-27T10:43:26.466Z,23
2016-02-27T10:44:24.984Z,23
2016-02-27T10:45:23.518Z,23
2016-02-27T10:46:22.036Z,23
2016-02-27T10:47:20.742Z,23
2016-02-27T10:48:21.620Z,23
2016-02-27T10:49:20.154Z,22.9
2016-02-27T10:50:18.797Z,22.9
2016-02-27T10:51:17.316Z,23
2016-02-27T10:52:15.833Z,23
2016-02-27T10:53:14.368Z,22.9
2016-02-27T10:54:12.761Z,22.9
2016-02-27T10:55:11.295Z,22.9
2016-02-27T10:56:09.845Z,22.9
2016-02-27T10:57:08.394Z,22.9
2016-02-27T10:58:09.397Z,22.9
2016-02-27T10:59:07.916Z,22.9
2016-02-27T11:00:06.449Z,22.9
2016-02-27T11:01:04.952Z,23
2016-02-27T11:02:03.608Z,23
2016-02-27T11:03:02.032Z,22.9
2016-02-27T11:04:00.535Z,23
2016-02-27T11:04:59.054Z,23
2016-02-27T11:05:57.571Z,23
2016-02-27T11:06:56.153Z,23
2016-02-27T11:07:57.156Z,23.1
2016-02-27T11:08:55.690Z,23.1
2016-02-27T11:09:54.332Z,23.1
2016-02-27T11:10:52.726Z,23.1
2016-02-27T11:11:51.400Z,23.1
2016-02-27T11:12:49.919Z,23.1
2016-02-27T11:13:48.312Z,23.2
2016-02-27T11:14:46.831Z,23.2
2016-02-27T11:15:45.364Z,23.2
2016-02-27T11:16:43.945Z,23.2
2016-02-27T11:17:44.948Z,23.2
2016-02-27T11:18:43.466Z,23.3
2016-02-27T11:19:41.984Z,23.3
2016-02-27T11:20:40.519Z,23.2
2016-02-27T11:21:39.037Z,23.2
2016-02-27T11:22:37.556Z,23.3
2016-02-27T11:23:36.199Z,23.3
2016-02-27T11:24:34.592Z,23.3
2016-02-27T11:25:33.376Z,23.3
2016-02-27T11:26:32.207Z,23.3
2016-02-27T11:27:33.225Z,23.3
2016-02-27T11:28:31.727Z,23.3
2016-02-27T11:29:30.512Z,23.3
2016-02-27T11:30:29.296Z,23.4
2016-02-27T11:31:28.064Z,23.4
2016-02-27T11:32:26.958Z,23.4
2016-02-27T11:33:25.631Z,23.4
2016-02-27T11:34:24.399Z,23.4
2016-02-27T11:35:23.184Z,23.4
2016-02-27T11:36:22.015Z,23.4
2016-02-27T11:37:23.127Z,23.5
2016-02-27T11:38:21.786Z,23.5
2016-02-27T11:39:20.570Z,23.4
2016-02-27T11:40:19.463Z,23.4
2016-02-27T11:41:18.262Z,23.5
2016-02-27T11:42:16.906Z,23.5
2016-02-27T11:43:15.690Z,23.5
2016-02-27T11:44:14.458Z,23.5
2016-02-27T11:45:13.227Z,23.5
2016-02-27T11:46:12.073Z,23.5
2016-02-27T11:47:13.185Z,23.5
2016-02-27T11:48:11.859Z,23.5
2016-02-27T11:49:10.878Z,23.5
2016-02-27T11:50:09.911Z,23.5
2016-02-27T11:51:09.055Z,23.5
2016-02-27T11:52:07.995Z,23.5
2016-02-27T11:53:07.027Z,23.5
2016-02-27T11:54:06.030Z,23.5
2016-02-27T11:55:05.064Z,23.5
2016-02-27T11:56:04.144Z,23.5
2016-02-27T11:57:05.147Z,23.5
2016-02-27T11:58:04.180Z,23.5
2016-02-27T11:59:03.324Z,23.5
2016-02-27T12:00:02.233Z,23.5
2016-02-27T12:01:01.266Z,23.5
2016-02-27T12:02:00.411Z,23.5
2016-02-27T12:02:59.319Z,23.5
2016-02-27T12:03:58.510Z,23.5
2016-02-27T12:04:57.387Z,23.5
2016-02-27T12:05:56.468Z,23.6
2016-02-27T12:06:57.471Z,23.6
2016-02-27T12:07:56.504Z,23.6
2016-02-27T12:08:55.538Z,23.6
2016-02-27T12:09:54.682Z,23.5
2016-02-27T12:10:53.857Z,23.6
2016-02-27T12:11:53.140Z,23.6
2016-02-27T12:12:52.424Z,23.6
2016-02-27T12:13:51.708Z,23.5
2016-02-27T12:14:51.007Z,23.6
2016-02-27T12:15:50.573Z,23.6
2016-02-27T12:16:51.591Z,23.6
2016-02-27T12:17:51.235Z,23.5
2016-02-27T12:18:50.534Z,23.5
2016-02-27T12:19:49.943Z,23.6
2016-02-27T12:20:49.492Z,23.6
2016-02-27T12:21:49.136Z,23.6
2016-02-27T12:22:48.670Z,23.6
2016-02-27T12:23:48.079Z,23.6
2016-02-27T12:24:47.644Z,23.6
2016-02-27T12:25:47.209Z,23.6
2016-02-27T12:26:48.244Z,23.6
2016-02-27T12:27:47.746Z,23.6
2016-02-27T12:28:47.280Z,23.6
2016-02-27T12:29:46.595Z,23.6
2016-02-27T12:30:46.222Z,23.5
2016-02-27T12:31:45.397Z,23.6
2016-02-27T12:32:44.931Z,23.6
2016-02-27T12:33:44.216Z,23.6
2016-02-27T12:34:43.749Z,23.6
2016-02-27T12:35:43.455Z,23.7
2016-02-27T12:36:44.380Z,23.6
2016-02-27T12:37:44.023Z,23.6
2016-02-27T12:38:43.416Z,23.6
2016-02-27T12:39:42.950Z,23.7
2016-02-27T12:40:42.515Z,23.6
2016-02-27T12:41:42.018Z,23.7
2016-02-27T12:42:41.708Z,23.6
2016-02-27T12:43:41.210Z,23.7
2016-02-27T12:44:40.635Z,23.6
2016-02-27T12:45:40.232Z,23.7
2016-02-27T12:46:41.218Z,23.6
2016-02-27T12:47:40.753Z,23.6
2016-02-27T12:48:40.053Z,23.3
2016-02-27T12:49:40.461Z,23.3
2016-02-27T12:50:38.354Z,23.3
2016-02-27T12:51:39.654Z,23.3
2016-02-27T12:52:39.814Z,23.2
2016-02-27T12:53:38.737Z,23.3
2016-02-27T12:54:36.881Z,23.2
2016-02-27T12:55:37.867Z,23.2
2016-02-27T12:56:38.902Z,23.2
2016-02-27T12:57:38.139Z,23.1
2016-02-27T12:58:36.689Z,23
2016-02-27T12:59:34.691Z,22.9
2016-02-27T13:00:32.585Z,22.9
2016-02-27T13:01:33.759Z,22.8
2016-02-27T13:02:34.543Z,22.7
2016-02-27T13:03:34.843Z,22.7
2016-02-27T13:04:34.876Z,22.7
2016-02-27T13:05:34.864Z,22.6
2016-02-27T13:06:35.866Z,22.5